高松空港の過去48時間の天気

高松空港 (Takamatsu)

現在時刻: 5/28 14:42 JST (5/28 05:42 UTC) 以下の時間は現地時間です。

過去48時間のMETAR気象情報
時間 風向 風速(m/s) 視程 気温(℃) 湿度(%) 気圧(hPa) 天気現象
28 14:00 西 6 10km以上 26 26 1007
28 13:00 4 10km以上 25 47 1008
28 12:00 北西 3 10km以上 24 47 1008
28 11:00 北西 4 10km以上 24 44 1008
28 10:00 不定 2 10km以上 22 53 1008
28 09:00 西北西 2 10km以上 21 56 1009
28 08:00 不定 1 10km以上 19 73 1009
28 07:00 不定 1 10km以上 17 77 1009
27 21:00 不定 1 10km以上 19 73 1008
27 20:00 南西 3 10km以上 20 68 1007
27 19:00 南西 3 10km以上 21 64 1006
27 18:00 西南西 4 10km以上 23 53 1006
27 17:00 西 4 10km以上 24 50 1005
27 16:00 西 5 10km以上 25 47 1005
27 15:00 西 4 10km以上 25 54 1006
27 14:00 西北西 5 10km以上 24 54 1006
27 13:00 西 6 10km以上 24 54 1007
27 12:00 西 6 10km以上 25 54 1007
27 11:00 西南西 6 10km以上 24 50 1007
27 10:00 西 6 10km以上 23 61 1007
27 09:00 西南西 5 10km以上 21 73 1007
27 08:00 西 4 10km以上 20 83 1007
27 07:00 西南西 2 10km以上 19 94 1007
RJOT 280500Z 27012KT 9999 FEW030 26/05 Q1007
RJOT 280400Z VRB08KT 9999 FEW030 25/13 Q1008
RJOT 280300Z 31005KT 250V030 9999 FEW030 24/12 Q1008
RJOT 280200Z 31007KT 280V360 9999 FEW030 24/11 Q1008
RJOT 280100Z VRB03KT 9999 FEW030 22/12 Q1008
RJOT 280000Z 30003KT 220V010 9999 FEW030 21/12 Q1009
RJOT 272300Z VRB02KT 9999 FEW030 19/14 Q1009
RJOT 272200Z VRB01KT CAVOK 17/13 Q1009
RJOT 271200Z VRB01KT 9999 FEW030 SCT060 BKN/// 19/14 Q1008
RJOT 271100Z 23005KT 9999 FEW030 BKN/// 20/14 Q1007
RJOT 271000Z 23006KT 9999 FEW030 BKN/// 21/14 Q1006
RJOT 270900Z 24007KT 9999 FEW030 BKN/// 23/13 Q1006
RJOT 270800Z 27008KT 9999 FEW030 BKN/// 24/13 Q1005
RJOT 270700Z 28009KT 250V310 9999 FEW030 BKN/// 25/13 Q1005
RJOT 270600Z 27007KT 210V320 9999 FEW030 BKN/// 25/15 Q1006
RJOT 270500Z 29010KT 260V330 9999 FEW030 BKN/// 24/14 Q1006
RJOT 270400Z 28011KT 250V310 9999 FEW030 BKN/// 24/14 Q1007
RJOT 270300Z 26012KT 9999 FEW030 BKN/// 25/15 Q1007
RJOT 270200Z 25012KT 9999 FEW030 BKN/// 24/13 Q1007
RJOT 270100Z 26012KT 230V300 9999 FEW030 BKN/// 23/15 Q1007
RJOT 270000Z 25010KT 210V270 9999 FEW020 BKN/// 21/16 Q1007
RJOT 262300Z 26008KT 9999 FEW010 BKN/// 20/17 Q1007
RJOT 262200Z 25004KT 210V280 9999 FEW005 BKN/// 19/18 Q1007